sensor_id;sensor_type;location;lat;lon;timestamp;pressure;altitude;pressure_sealevel;temperature;humidity
70434;BME280;57876;47.792;12.960;2024-02-21T00:02:00;97829.63;;;19.39;42.29
70434;BME280;57876;47.792;12.960;2024-02-21T00:04:25;97830.44;;;19.40;42.22
70434;BME280;57876;47.792;12.960;2024-02-21T00:06:49;97835.59;;;19.41;41.95
70434;BME280;57876;47.792;12.960;2024-02-21T00:09:13;97825.75;;;19.40;42.32
70434;BME280;57876;47.792;12.960;2024-02-21T00:11:38;97830.09;;;19.41;42.11
70434;BME280;57876;47.792;12.960;2024-02-21T00:14:02;97823.50;;;19.42;42.35
70434;BME280;57876;47.792;12.960;2024-02-21T00:16:26;97829.78;;;19.43;42.38
70434;BME280;57876;47.792;12.960;2024-02-21T00:18:51;97824.00;;;19.44;42.33
70434;BME280;57876;47.792;12.960;2024-02-21T00:21:15;97817.69;;;19.44;42.24
70434;BME280;57876;47.792;12.960;2024-02-21T00:23:42;97814.13;;;19.43;42.04
70434;BME280;57876;47.792;12.960;2024-02-21T00:26:06;97818.81;;;19.43;42.10
70434;BME280;57876;47.792;12.960;2024-02-21T00:28:31;97818.03;;;19.42;42.25
70434;BME280;57876;47.792;12.960;2024-02-21T00:30:57;97814.47;;;19.42;41.95
70434;BME280;57876;47.792;12.960;2024-02-21T00:33:21;97812.34;;;19.39;42.23
70434;BME280;57876;47.792;12.960;2024-02-21T00:35:46;97815.09;;;19.39;42.26
70434;BME280;57876;47.792;12.960;2024-02-21T00:38:10;97810.72;;;19.38;42.38
70434;BME280;57876;47.792;12.960;2024-02-21T00:40:35;97813.78;;;19.36;42.16
70434;BME280;57876;47.792;12.960;2024-02-21T00:42:59;97808.28;;;19.36;42.20
70434;BME280;57876;47.792;12.960;2024-02-21T00:45:23;97819.25;;;19.36;42.14
70434;BME280;57876;47.792;12.960;2024-02-21T00:47:48;97811.38;;;19.34;42.40
70434;BME280;57876;47.792;12.960;2024-02-21T00:50:12;97817.50;;;19.31;42.22
70434;BME280;57876;47.792;12.960;2024-02-21T00:52:36;97810.06;;;19.32;42.11
70434;BME280;57876;47.792;12.960;2024-02-21T00:55:01;97812.81;;;19.32;42.56
70434;BME280;57876;47.792;12.960;2024-02-21T00:57:26;97806.19;;;19.33;42.48
70434;BME280;57876;47.792;12.960;2024-02-21T00:59:50;97805.72;;;19.31;42.31
70434;BME280;57876;47.792;12.960;2024-02-21T01:02:14;97802.66;;;19.32;42.21
70434;BME280;57876;47.792;12.960;2024-02-21T01:04:39;97795.22;;;19.33;42.29
70434;BME280;57876;47.792;12.960;2024-02-21T01:07:03;97794.09;;;19.34;42.25
70434;BME280;57876;47.792;12.960;2024-02-21T01:09:28;97791.38;;;19.34;42.26
70434;BME280;57876;47.792;12.960;2024-02-21T01:11:52;97790.22;;;19.35;42.32
70434;BME280;57876;47.792;12.960;2024-02-21T01:14:17;97781.69;;;19.36;42.25
70434;BME280;57876;47.792;12.960;2024-02-21T01:16:42;97784.91;;;19.39;42.48
70434;BME280;57876;47.792;12.960;2024-02-21T01:19:06;97767.63;;;19.38;42.17
70434;BME280;57876;47.792;12.960;2024-02-21T01:21:30;97765.41;;;19.40;42.18
70434;BME280;57876;47.792;12.960;2024-02-21T01:23:55;97767.00;;;19.41;42.16
70434;BME280;57876;47.792;12.960;2024-02-21T01:26:19;97774.13;;;19.42;42.21
70434;BME280;57876;47.792;12.960;2024-02-21T01:28:44;97769.13;;;19.44;42.09
70434;BME280;57876;47.792;12.960;2024-02-21T01:31:08;97767.19;;;19.45;42.21
70434;BME280;57876;47.792;12.960;2024-02-21T01:33:33;97765.25;;;19.45;42.27
70434;BME280;57876;47.792;12.960;2024-02-21T01:35:59;97764.44;;;19.45;42.16
70434;BME280;57876;47.792;12.960;2024-02-21T01:38:23;97757.03;;;19.45;42.32
70434;BME280;57876;47.792;12.960;2024-02-21T01:40:47;97752.66;;;19.44;42.36
70434;BME280;57876;47.792;12.960;2024-02-21T01:43:16;97734.28;;;19.45;42.32
70434;BME280;57876;47.792;12.960;2024-02-21T01:45:41;97737.31;;;19.43;42.04
70434;BME280;57876;47.792;12.960;2024-02-21T01:48:06;97742.81;;;19.43;42.19
70434;BME280;57876;47.792;12.960;2024-02-21T01:50:31;97728.59;;;19.41;42.18
70434;BME280;57876;47.792;12.960;2024-02-21T01:52:55;97721.50;;;19.40;42.11
70434;BME280;57876;47.792;12.960;2024-02-21T01:55:20;97721.50;;;19.40;42.41
70434;BME280;57876;47.792;12.960;2024-02-21T01:57:45;97711.97;;;19.38;42.32
70434;BME280;57876;47.792;12.960;2024-02-21T02:00:11;97716.66;;;19.37;42.28
70434;BME280;57876;47.792;12.960;2024-02-21T02:02:37;97717.75;;;19.36;42.15
70434;BME280;57876;47.792;12.960;2024-02-21T02:05:02;97706.31;;;19.34;42.31
70434;BME280;57876;47.792;12.960;2024-02-21T02:07:27;97709.06;;;19.34;42.20
70434;BME280;57876;47.792;12.960;2024-02-21T02:09:51;97706.63;;;19.32;42.25
70434;BME280;57876;47.792;12.960;2024-02-21T02:12:16;97706.97;;;19.31;42.21
70434;BME280;57876;47.792;12.960;2024-02-21T02:14:40;97712.47;;;19.31;42.35
70434;BME280;57876;47.792;12.960;2024-02-21T02:17:07;97699.69;;;19.26;42.38
70434;BME280;57876;47.792;12.960;2024-02-21T02:19:33;97691.47;;;19.26;42.36
70434;BME280;57876;47.792;12.960;2024-02-21T02:22:09;97692.75;;;19.29;42.37
70434;BME280;57876;47.792;12.960;2024-02-21T02:24:38;97702.09;;;19.28;42.18
70434;BME280;57876;47.792;12.960;2024-02-21T02:27:03;97700.66;;;19.30;42.35
70434;BME280;57876;47.792;12.960;2024-02-21T02:29:27;97694.38;;;19.30;42.36
70434;BME280;57876;47.792;12.960;2024-02-21T02:31:52;97700.34;;;19.32;42.27
70434;BME280;57876;47.792;12.960;2024-02-21T02:34:16;97687.78;;;19.31;42.29
70434;BME280;57876;47.792;12.960;2024-02-21T02:36:41;97687.44;;;19.32;42.28
70434;BME280;57876;47.792;12.960;2024-02-21T02:39:05;97688.22;;;19.33;42.19
70434;BME280;57876;47.792;12.960;2024-02-21T02:41:30;97680.50;;;19.35;42.48
70434;BME280;57876;47.792;12.960;2024-02-21T02:43:55;97682.09;;;19.36;42.23
70434;BME280;57876;47.792;12.960;2024-02-21T02:46:19;97681.31;;;19.35;42.41
70434;BME280;57876;47.792;12.960;2024-02-21T02:48:44;97676.63;;;19.36;42.42
70434;BME280;57876;47.792;12.960;2024-02-21T02:51:09;97693.91;;;19.36;42.41
70434;BME280;57876;47.792;12.960;2024-02-21T02:53:33;97679.69;;;19.34;42.36
70434;BME280;57876;47.792;12.960;2024-02-21T02:55:57;97665.81;;;19.31;42.18
70434;BME280;57876;47.792;12.960;2024-02-21T02:58:22;97670.97;;;19.32;42.32
70434;BME280;57876;47.792;12.960;2024-02-21T03:00:46;97663.88;;;19.31;42.34
70434;BME280;57876;47.792;12.960;2024-02-21T03:03:10;97662.75;;;19.32;42.31
70434;BME280;57876;47.792;12.960;2024-02-21T03:05:35;97663.88;;;19.31;42.19
70434;BME280;57876;47.792;12.960;2024-02-21T03:07:59;97651.28;;;19.30;42.18
70434;BME280;57876;47.792;12.960;2024-02-21T03:10:24;97654.34;;;19.29;42.36
70434;BME280;57876;47.792;12.960;2024-02-21T03:12:48;97648.88;;;19.29;42.45
70434;BME280;57876;47.792;12.960;2024-02-21T03:15:13;97649.97;;;19.28;42.22
70434;BME280;57876;47.792;12.960;2024-02-21T03:17:38;97646.44;;;19.27;42.17
70434;BME280;57876;47.792;12.960;2024-02-21T03:20:03;97658.84;;;19.25;42.15
70434;BME280;57876;47.792;12.960;2024-02-21T03:22:34;97648.69;;;19.25;42.39
70434;BME280;57876;47.792;12.960;2024-02-21T03:24:58;97640.78;;;19.24;42.34
70434;BME280;57876;47.792;12.960;2024-02-21T03:27:23;97636.13;;;19.24;42.33
70434;BME280;57876;47.792;12.960;2024-02-21T03:29:47;97628.53;;;19.21;41.99
70434;BME280;57876;47.792;12.960;2024-02-21T03:32:12;97625.78;;;19.21;42.23
70434;BME280;57876;47.792;12.960;2024-02-21T03:34:36;97633.22;;;19.21;42.16
70434;BME280;57876;47.792;12.960;2024-02-21T03:37:00;97637.72;;;19.17;42.63
70434;BME280;57876;47.792;12.960;2024-02-21T03:39:25;97633.03;;;19.17;42.46
70434;BME280;57876;47.792;12.960;2024-02-21T03:41:49;97645.13;;;19.16;42.37
70434;BME280;57876;47.792;12.960;2024-02-21T03:44:14;97630.63;;;19.16;42.33
70434;BME280;57876;47.792;12.960;2024-02-21T03:46:38;97627.88;;;19.16;42.14
70434;BME280;57876;47.792;12.960;2024-02-21T03:49:03;97634.97;;;19.17;42.38
70434;BME280;57876;47.792;12.960;2024-02-21T03:51:27;97624.00;;;19.17;42.57
70434;BME280;57876;47.792;12.960;2024-02-21T03:53:51;97630.28;;;19.17;42.28
70434;BME280;57876;47.792;12.960;2024-02-21T03:56:16;97629.19;;;19.18;42.46
70434;BME280;57876;47.792;12.960;2024-02-21T03:58:40;97630.78;;;19.19;42.24
70434;BME280;57876;47.792;12.960;2024-02-21T04:01:05;97624.97;;;19.21;42.35
70434;BME280;57876;47.792;12.960;2024-02-21T04:03:30;97624.97;;;19.21;42.56
70434;BME280;57876;47.792;12.960;2024-02-21T04:05:54;97623.34;;;19.20;42.29
70434;BME280;57876;47.792;12.960;2024-02-21T04:08:19;97625.13;;;19.24;42.06
70434;BME280;57876;47.792;12.960;2024-02-21T04:10:43;97616.13;;;19.24;42.37
70434;BME280;57876;47.792;12.960;2024-02-21T04:13:08;97611.13;;;19.26;42.42
70434;BME280;57876;47.792;12.960;2024-02-21T04:15:32;97619.81;;;19.28;42.37
70434;BME280;57876;47.792;12.960;2024-02-21T04:18:00;97621.09;;;19.30;42.34
70434;BME280;57876;47.792;12.960;2024-02-21T04:20:24;97619.19;;;19.31;42.31
70434;BME280;57876;47.792;12.960;2024-02-21T04:22:48;97609.50;;;19.33;42.31
70434;BME280;57876;47.792;12.960;2024-02-21T04:25:13;97604.84;;;19.34;42.22
70434;BME280;57876;47.792;12.960;2024-02-21T04:27:39;97615.31;;;19.32;42.34
70434;BME280;57876;47.792;12.960;2024-02-21T04:30:03;97611.63;;;19.36;41.82
70434;BME280;57876;47.792;12.960;2024-02-21T04:32:28;97622.25;;;19.38;42.27
70434;BME280;57876;47.792;12.960;2024-02-21T04:34:53;97609.34;;;19.39;42.36
70434;BME280;57876;47.792;12.960;2024-02-21T04:37:17;97611.75;;;19.40;42.24
70434;BME280;57876;47.792;12.960;2024-02-21T04:39:42;97613.38;;;19.41;42.29
70434;BME280;57876;47.792;12.960;2024-02-21T04:42:06;97616.59;;;19.43;42.15
70434;BME280;57876;47.792;12.960;2024-02-21T04:44:30;97605.97;;;19.42;42.15
70434;BME280;57876;47.792;12.960;2024-02-21T04:46:55;97601.78;;;19.44;42.40
70434;BME280;57876;47.792;12.960;2024-02-21T04:49:19;97602.22;;;19.46;42.14
70434;BME280;57876;47.792;12.960;2024-02-21T04:51:44;97592.09;;;19.47;42.26
70434;BME280;57876;47.792;12.960;2024-02-21T04:54:08;97595.28;;;19.49;42.14
70434;BME280;57876;47.792;12.960;2024-02-21T04:56:33;97600.13;;;19.52;42.45
70434;BME280;57876;47.792;12.960;2024-02-21T04:58:58;97597.09;;;19.53;42.21
70434;BME280;57876;47.792;12.960;2024-02-21T05:01:22;97596.59;;;19.51;42.28
70434;BME280;57876;47.792;12.960;2024-02-21T05:03:47;97593.53;;;19.53;42.26
70434;BME280;57876;47.792;12.960;2024-02-21T05:06:11;97588.34;;;19.51;42.34
70434;BME280;57876;47.792;12.960;2024-02-21T05:08:36;97590.78;;;19.53;42.27
70434;BME280;57876;47.792;12.960;2024-02-21T05:11:00;97595.47;;;19.52;42.34
70434;BME280;57876;47.792;12.960;2024-02-21T05:13:25;97591.09;;;19.51;42.01
70434;BME280;57876;47.792;12.960;2024-02-21T05:15:49;97587.56;;;19.51;42.14
70434;BME280;57876;47.792;12.960;2024-02-21T05:18:14;97585.94;;;19.50;42.29
70434;BME280;57876;47.792;12.960;2024-02-21T05:20:39;97575.28;;;19.48;42.32
70434;BME280;57876;47.792;12.960;2024-02-21T05:23:03;97582.72;;;19.48;42.34
70434;BME280;57876;47.792;12.960;2024-02-21T05:25:28;97580.28;;;19.46;42.15
70434;BME280;57876;47.792;12.960;2024-02-21T05:27:52;97576.75;;;19.46;42.33
70434;BME280;57876;47.792;12.960;2024-02-21T05:30:17;97584.16;;;19.45;42.23
70434;BME280;57876;47.792;12.960;2024-02-21T05:32:42;97575.13;;;19.45;42.13
70434;BME280;57876;47.792;12.960;2024-02-21T05:35:07;97579.81;;;19.44;42.17
70434;BME280;57876;47.792;12.960;2024-02-21T05:37:31;97574.00;;;19.46;42.21
70434;BME280;57876;47.792;12.960;2024-02-21T05:39:56;97573.19;;;19.45;42.27
70434;BME280;57876;47.792;12.960;2024-02-21T05:42:20;97572.06;;;19.46;42.28
70434;BME280;57876;47.792;12.960;2024-02-21T05:44:44;97574.81;;;19.46;42.05
70434;BME280;57876;47.792;12.960;2024-02-21T05:47:09;97578.38;;;19.47;42.08
70434;BME280;57876;47.792;12.960;2024-02-21T05:49:34;97573.34;;;19.49;42.30
70434;BME280;57876;47.792;12.960;2024-02-21T05:51:59;97565.13;;;19.49;42.20
70434;BME280;57876;47.792;12.960;2024-02-21T05:54:23;97556.88;;;19.49;42.36
70434;BME280;57876;47.792;12.960;2024-02-21T05:56:48;97556.56;;;19.50;42.20
70434;BME280;57876;47.792;12.960;2024-02-21T05:59:12;97549.63;;;19.53;42.38
70434;BME280;57876;47.792;12.960;2024-02-21T06:01:37;97547.69;;;19.53;42.07
70434;BME280;57876;47.792;12.960;2024-02-21T06:04:01;97549.28;;;19.54;42.21
70434;BME280;57876;47.792;12.960;2024-02-21T06:06:25;97548.19;;;19.55;42.24
70434;BME280;57876;47.792;12.960;2024-02-21T06:08:50;97539.59;;;19.57;42.33
70434;BME280;57876;47.792;12.960;2024-02-21T06:11:14;97525.56;;;19.58;42.15
70434;BME280;57876;47.792;12.960;2024-02-21T06:13:39;97525.25;;;19.60;42.14
70434;BME280;57876;47.792;12.960;2024-02-21T06:16:05;97528.00;;;19.60;42.44
70434;BME280;57876;47.792;12.960;2024-02-21T06:18:29;97525.25;;;19.60;42.28
70434;BME280;57876;47.792;12.960;2024-02-21T06:20:54;97531.06;;;19.58;42.20
70434;BME280;57876;47.792;12.960;2024-02-21T06:23:18;97534.59;;;19.59;41.92
70434;BME280;57876;47.792;12.960;2024-02-21T06:25:43;97523.97;;;19.57;42.23
70434;BME280;57876;47.792;12.960;2024-02-21T06:28:08;97523.97;;;19.57;42.09
70434;BME280;57876;47.792;12.960;2024-02-21T06:30:32;97521.53;;;19.56;41.93
70434;BME280;57876;47.792;12.960;2024-02-21T06:32:57;97524.59;;;19.54;42.23
70434;BME280;57876;47.792;12.960;2024-02-21T06:35:23;97521.06;;;19.54;42.18
70434;BME280;57876;47.792;12.960;2024-02-21T06:37:51;97521.41;;;19.52;42.00
70434;BME280;57876;47.792;12.960;2024-02-21T06:40:20;97517.03;;;19.51;42.13
70434;BME280;57876;47.792;12.960;2024-02-21T06:42:45;97525.25;;;19.51;42.09
70434;BME280;57876;47.792;12.960;2024-02-21T06:45:09;97521.72;;;19.51;42.29
70434;BME280;57876;47.792;12.960;2024-02-21T06:47:34;97520.91;;;19.50;42.32
70434;BME280;57876;47.792;12.960;2024-02-21T06:49:58;97524.44;;;19.51;42.05
70434;BME280;57876;47.792;12.960;2024-02-21T06:52:23;97518.97;;;19.51;42.27
70434;BME280;57876;47.792;12.960;2024-02-21T06:54:48;97523.66;;;19.50;42.12
70434;BME280;57876;47.792;12.960;2024-02-21T06:57:13;97519.75;;;19.51;42.36
70434;BME280;57876;47.792;12.960;2024-02-21T06:59:40;97513.47;;;19.51;42.06
70434;BME280;57876;47.792;12.960;2024-02-21T07:02:04;97513.16;;;19.52;42.03
70434;BME280;57876;47.792;12.960;2024-02-21T07:04:29;97514.75;;;19.53;42.00
70434;BME280;57876;47.792;12.960;2024-02-21T07:06:54;97510.88;;;19.54;41.79
70434;BME280;57876;47.792;12.960;2024-02-21T07:09:18;97516.84;;;19.56;42.19
70434;BME280;57876;47.792;12.960;2024-02-21T07:11:43;97516.84;;;19.56;42.09
70434;BME280;57876;47.792;12.960;2024-02-21T07:14:09;97515.75;;;19.57;41.97
70434;BME280;57876;47.792;12.960;2024-02-21T07:16:33;97509.75;;;19.55;42.09
70434;BME280;57876;47.792;12.960;2024-02-21T07:19:00;97510.72;;;19.59;42.44
70434;BME280;57876;47.792;12.960;2024-02-21T07:21:24;97510.72;;;19.59;42.23
70434;BME280;57876;47.792;12.960;2024-02-21T07:23:49;97511.19;;;19.62;41.98
70434;BME280;57876;47.792;12.960;2024-02-21T07:26:14;97511.69;;;19.64;42.18
70434;BME280;57876;47.792;12.960;2024-02-21T07:28:38;97508.59;;;19.65;42.24
70434;BME280;57876;47.792;12.960;2024-02-21T07:31:03;97509.44;;;19.66;42.00
70434;BME280;57876;47.792;12.960;2024-02-21T07:33:28;97497.63;;;19.65;42.00
70434;BME280;57876;47.792;12.960;2024-02-21T07:35:52;97505.06;;;19.65;42.36
70434;BME280;57876;47.792;12.960;2024-02-21T07:38:16;97502.81;;;19.67;42.17
70434;BME280;57876;47.792;12.960;2024-02-21T07:40:44;97498.44;;;19.66;41.88
70434;BME280;57876;47.792;12.960;2024-02-21T07:43:08;97481.50;;;19.64;42.13
70434;BME280;57876;47.792;12.960;2024-02-21T07:45:33;97485.84;;;19.65;42.14
70434;BME280;57876;47.792;12.960;2024-02-21T07:47:57;97483.09;;;19.65;42.16
70434;BME280;57876;47.792;12.960;2024-02-21T07:50:22;97470.84;;;19.62;42.28
70434;BME280;57876;47.792;12.960;2024-02-21T07:52:46;97475.53;;;19.62;42.10
70434;BME280;57876;47.792;12.960;2024-02-21T07:55:11;97465.19;;;19.58;41.87
70434;BME280;57876;47.792;12.960;2024-02-21T07:57:35;97466.81;;;19.59;42.01
70434;BME280;57876;47.792;12.960;2024-02-21T08:00:00;97463.59;;;19.57;42.09
70434;BME280;57876;47.792;12.960;2024-02-21T08:02:24;97459.56;;;19.55;41.88
70434;BME280;57876;47.792;12.960;2024-02-21T08:04:48;97456.81;;;19.55;42.01
70434;BME280;57876;47.792;12.960;2024-02-21T08:07:13;97447.31;;;19.52;42.26
70434;BME280;57876;47.792;12.960;2024-02-21T08:09:39;97452.31;;;19.50;42.02
70434;BME280;57876;47.792;12.960;2024-02-21T08:12:04;97444.09;;;19.50;42.28
70434;BME280;57876;47.792;12.960;2024-02-21T08:14:29;97433.59;;;19.44;42.20
70434;BME280;57876;47.792;12.960;2024-02-21T08:16:54;97431.69;;;19.44;42.23
70434;BME280;57876;47.792;12.960;2024-02-21T08:19:20;97426.19;;;19.44;42.13
70434;BME280;57876;47.792;12.960;2024-02-21T08:21:44;97421.69;;;19.40;42.26
70434;BME280;57876;47.792;12.960;2024-02-21T08:24:11;97426.38;;;19.39;42.19
70434;BME280;57876;47.792;12.960;2024-02-21T08:26:40;97424.25;;;19.36;42.29
70434;BME280;57876;47.792;12.960;2024-02-21T08:29:04;97423.78;;;19.34;42.39
70434;BME280;57876;47.792;12.960;2024-02-21T08:31:29;97426.53;;;19.34;42.29
70434;BME280;57876;47.792;12.960;2024-02-21T08:33:55;97425.41;;;19.35;42.16
70434;BME280;57876;47.792;12.960;2024-02-21T08:36:20;97421.06;;;19.34;42.24
70434;BME280;57876;47.792;12.960;2024-02-21T08:38:45;97408.44;;;19.33;42.11
70434;BME280;57876;47.792;12.960;2024-02-21T08:41:09;97412.47;;;19.35;42.19
70434;BME280;57876;47.792;12.960;2024-02-21T08:43:34;97414.91;;;19.37;42.19
70434;BME280;57876;47.792;12.960;2024-02-21T08:46:00;97416.19;;;19.40;42.04
70434;BME280;57876;47.792;12.960;2024-02-21T08:48:24;97405.53;;;19.38;42.17
70434;BME280;57876;47.792;12.960;2024-02-21T08:50:49;97401.69;;;19.39;42.26
70434;BME280;57876;47.792;12.960;2024-02-21T08:53:14;97399.38;;;19.41;42.22
70434;BME280;57876;47.792;12.960;2024-02-21T08:55:38;97392.78;;;19.42;42.10
70434;BME280;57876;47.792;12.960;2024-02-21T08:58:02;97392.44;;;19.44;41.98
70434;BME280;57876;47.792;12.960;2024-02-21T09:00:28;97393.28;;;19.44;42.01
70434;BME280;57876;47.792;12.960;2024-02-21T09:02:53;97377.94;;;19.43;42.06
70434;BME280;57876;47.792;12.960;2024-02-21T09:05:20;97380.00;;;19.46;41.92
70434;BME280;57876;47.792;12.960;2024-02-21T09:07:44;97372.25;;;19.48;41.98
70434;BME280;57876;47.792;12.960;2024-02-21T09:10:09;97365.97;;;19.48;42.15
70434;BME280;57876;47.792;12.960;2024-02-21T09:12:33;97357.41;;;19.49;42.20
70434;BME280;57876;47.792;12.960;2024-02-21T09:14:57;97353.53;;;19.50;42.17
70434;BME280;57876;47.792;12.960;2024-02-21T09:17:22;97349.66;;;19.51;42.03
70434;BME280;57876;47.792;12.960;2024-02-21T09:19:47;97349.34;;;19.53;42.02
70434;BME280;57876;47.792;12.960;2024-02-21T09:22:12;97346.59;;;19.53;41.99
70434;BME280;57876;47.792;12.960;2024-02-21T09:24:36;97342.56;;;19.50;42.22
70434;BME280;57876;47.792;12.960;2024-02-21T09:27:00;97345.78;;;19.52;41.88
70434;BME280;57876;47.792;12.960;2024-02-21T09:29:25;97338.69;;;19.51;42.03
70434;BME280;57876;47.792;12.960;2024-02-21T09:31:50;97344.97;;;19.52;41.96
70434;BME280;57876;47.792;12.960;2024-02-21T09:34:14;97341.09;;;19.53;41.84
70434;BME280;57876;47.792;12.960;2024-02-21T09:36:38;97334.81;;;19.52;42.09
70434;BME280;57876;47.792;12.960;2024-02-21T09:39:04;97344.97;;;19.52;42.02
70434;BME280;57876;47.792;12.960;2024-02-21T09:41:29;97331.59;;;19.50;41.95
70434;BME280;57876;47.792;12.960;2024-02-21T09:43:53;97322.88;;;19.48;41.94
70434;BME280;57876;47.792;12.960;2024-02-21T09:46:19;97322.41;;;19.46;41.98
70434;BME280;57876;47.792;12.960;2024-02-21T09:51:15;97320.00;;;19.45;42.02
70434;BME280;57876;47.792;12.960;2024-02-21T09:53:40;97320.47;;;19.47;42.14
70434;BME280;57876;47.792;12.960;2024-02-21T09:56:08;97311.44;;;19.46;42.23
70434;BME280;57876;47.792;12.960;2024-02-21T09:58:32;97318.84;;;19.46;41.98
70434;BME280;57876;47.792;12.960;2024-02-21T10:00:57;97318.53;;;19.47;42.14
70434;BME280;57876;47.792;12.960;2024-02-21T10:03:22;97319.00;;;19.49;41.94
70434;BME280;57876;47.792;12.960;2024-02-21T10:05:48;97317.38;;;19.48;41.99
70434;BME280;57876;47.792;12.960;2024-02-21T10:08:16;97317.88;;;19.50;42.03
70434;BME280;57876;47.792;12.960;2024-02-21T10:10:43;97324.66;;;19.53;42.07
70434;BME280;57876;47.792;12.960;2024-02-21T10:13:07;97310.56;;;19.54;41.93
70434;BME280;57876;47.792;12.960;2024-02-21T10:15:32;97321.56;;;19.54;41.95
70434;BME280;57876;47.792;12.960;2024-02-21T10:18:00;97317.69;;;19.55;41.95
70434;BME280;57876;47.792;12.960;2024-02-21T10:20:25;97327.03;;;19.54;42.05
70434;BME280;57876;47.792;12.960;2024-02-21T10:23:03;97317.22;;;19.53;41.99
70434;BME280;57876;47.792;12.960;2024-02-21T10:25:27;97315.25;;;19.54;41.95
70434;BME280;57876;47.792;12.960;2024-02-21T10:27:52;97304.28;;;19.54;42.10
70434;BME280;57876;47.792;12.960;2024-02-21T10:30:16;97297.22;;;19.53;42.09
70434;BME280;57876;47.792;12.960;2024-02-21T10:32:51;97297.22;;;19.53;42.07
70434;BME280;57876;47.792;12.960;2024-02-21T10:35:25;97303.34;;;19.50;42.11
70434;BME280;57876;47.792;12.960;2024-02-21T10:37:51;97311.25;;;19.51;42.00
70434;BME280;57876;47.792;12.960;2024-02-21T10:40:19;97309.97;;;19.49;42.23
70434;BME280;57876;47.792;12.960;2024-02-21T10:42:44;97305.28;;;19.49;41.95
70434;BME280;57876;47.792;12.960;2024-02-21T10:45:09;97304.47;;;19.49;42.03
70434;BME280;57876;47.792;12.960;2024-02-21T10:47:35;97302.53;;;19.49;41.82
70434;BME280;57876;47.792;12.960;2024-02-21T10:50:03;97304.94;;;19.51;42.03
70434;BME280;57876;47.792;12.960;2024-02-21T10:54:59;97286.56;;;19.51;41.93
70434;BME280;57876;47.792;12.960;2024-02-21T10:57:27;97278.31;;;19.51;41.96
70434;BME280;57876;47.792;12.960;2024-02-21T10:59:53;97267.34;;;19.51;41.97
70434;BME280;57876;47.792;12.960;2024-02-21T11:02:19;97263.47;;;19.52;42.08
70434;BME280;57876;47.792;12.960;2024-02-21T11:04:44;97257.16;;;19.52;42.01
70434;BME280;57876;47.792;12.960;2024-02-21T11:07:09;97248.13;;;19.51;42.25
70434;BME280;57876;47.792;12.960;2024-02-21T11:09:34;97248.94;;;19.52;41.92
70434;BME280;57876;47.792;12.960;2024-02-21T11:12:02;97249.75;;;19.52;42.03
70434;BME280;57876;47.792;12.960;2024-02-21T11:14:28;97245.41;;;19.51;42.12
70434;BME280;57876;47.792;12.960;2024-02-21T11:16:52;97250.09;;;19.51;41.90
70434;BME280;57876;47.792;12.960;2024-02-21T11:19:27;97240.25;;;19.50;42.07
70434;BME280;57876;47.792;12.960;2024-02-21T11:21:54;97244.91;;;19.49;41.96
70434;BME280;57876;47.792;12.960;2024-02-21T11:24:32;97236.22;;;19.47;42.09
70434;BME280;57876;47.792;12.960;2024-02-21T11:29:33;97226.72;;;19.45;41.94
70434;BME280;57876;47.792;12.960;2024-02-21T11:31:57;97229.78;;;19.43;42.11
70434;BME280;57876;47.792;12.960;2024-02-21T11:34:22;97226.56;;;19.41;41.99
70434;BME280;57876;47.792;12.960;2024-02-21T11:36:53;97222.72;;;19.42;42.04
70434;BME280;57876;47.792;12.960;2024-02-21T11:39:26;97218.34;;;19.41;42.09
70434;BME280;57876;47.792;12.960;2024-02-21T11:42:04;97212.84;;;19.41;41.99
70434;BME280;57876;47.792;12.960;2024-02-21T11:44:30;97201.88;;;19.41;41.87
70434;BME280;57876;47.792;12.960;2024-02-21T11:46:54;97192.53;;;19.42;42.08
70434;BME280;57876;47.792;12.960;2024-02-21T11:49:19;97195.59;;;19.41;42.00
70434;BME280;57876;47.792;12.960;2024-02-21T11:51:44;97183.16;;;19.43;41.94
70434;BME280;57876;47.792;12.960;2024-02-21T11:54:08;97188.31;;;19.45;42.01
70434;BME280;57876;47.792;12.960;2024-02-21T11:56:35;97176.06;;;19.42;42.25
70434;BME280;57876;47.792;12.960;2024-02-21T11:58:59;97165.91;;;19.43;42.15
70434;BME280;57876;47.792;12.960;2024-02-21T12:01:24;97164.44;;;19.45;41.91
70434;BME280;57876;47.792;12.960;2024-02-21T12:03:48;97164.44;;;19.45;42.03
70434;BME280;57876;47.792;12.960;2024-02-21T12:06:16;97151.19;;;19.47;41.98
70434;BME280;57876;47.792;12.960;2024-02-21T12:08:45;97150.72;;;19.45;41.91
70434;BME280;57876;47.792;12.960;2024-02-21T12:11:19;97135.72;;;19.43;41.94
70434;BME280;57876;47.792;12.960;2024-02-21T12:13:44;97139.75;;;19.45;42.08
70434;BME280;57876;47.792;12.960;2024-02-21T12:16:08;97126.34;;;19.44;41.97
70434;BME280;57876;47.792;12.960;2024-02-21T12:18:32;97125.56;;;19.43;41.93
70434;BME280;57876;47.792;12.960;2024-02-21T12:20:58;97114.56;;;19.43;42.26
70434;BME280;57876;47.792;12.960;2024-02-21T12:23:22;97097.66;;;19.41;41.93
70434;BME280;57876;47.792;12.960;2024-02-21T12:25:47;97098.00;;;19.40;42.09
70434;BME280;57876;47.792;12.960;2024-02-21T12:28:11;97099.94;;;19.39;42.02
70434;BME280;57876;47.792;12.960;2024-02-21T12:30:36;97089.63;;;19.36;41.84
70434;BME280;57876;47.792;12.960;2024-02-21T12:33:03;97095.94;;;19.36;41.95
70434;BME280;57876;47.792;12.960;2024-02-21T12:35:28;97087.69;;;19.36;42.07
70434;BME280;57876;47.792;12.960;2024-02-21T12:37:52;97089.28;;;19.38;42.00
70434;BME280;57876;47.792;12.960;2024-02-21T12:40:16;97081.84;;;19.38;42.17
70434;BME280;57876;47.792;12.960;2024-02-21T12:42:41;97076.38;;;19.38;42.09
70434;BME280;57876;47.792;12.960;2024-02-21T12:45:06;97072.50;;;19.39;42.22
70434;BME280;57876;47.792;12.960;2024-02-21T12:47:30;97067.81;;;19.40;42.09